21:44
Airports
Links
Donate
Help keep this website running!
PayPal
Bitcoin
METAR
SBRJ 162100Z 18005KT 4000 -RA BKN010 OVC070 20/19 Q1018
Current Weather Conditions at SBRJ
IFR 21:00:00 16-08-17
Altimeter:30.06 hg
Temp:20.0°c 68°f
Dew point:19.0°c 66°f
Wind:5 knots, 5.8 mph, 3 m/s, from 180°
Visibility:2.49 statute miles
7000(OVC) Overcast
1000(BKN) Broken
Past METAR reports
MVFR 20:00:00 16-08-17
Altimeter:30.03 hg
Temp:20.0°c 68°f
Dew point:19.0°c 66°f
Wind:7 knots, 8.1 mph, 4 m/s, from 200°
Visibility:3.11 statute miles
7000(OVC) Overcast
1000(BKN) Broken
SBRJ 162000Z 20007KT 5000 -RA BR BKN010 OVC070 20/19 Q1017
MVFR 19:00:00 16-08-17
Altimeter:30.00 hg
Temp:20.0°c 68°f
Dew point:18.0°c 64°f
Wind:6 knots, 6.9 mph, 3 m/s, from 210°
Visibility:3.11 statute miles
7000(OVC) Overcast
1500(BKN) Broken
SBRJ 161900Z 21006KT 5000 -RA BR BKN015 OVC070 20/18 Q1016
MVFR 18:00:00 16-08-17
Altimeter:30.00 hg
Temp:21.0°c 70°f
Dew point:19.0°c 66°f
Wind:9 knots, 10.4 mph, 5 m/s, from 180°
Visibility:3.11 statute miles
7000(OVC) Overcast
1500(SCT) Scattered
700(FEW) A few
SBRJ 161800Z 18009KT 5000 BR FEW007 SCT015 OVC070 21/19 Q1016
MVFR 17:00:00 16-08-17
Altimeter:30.00 hg
Temp:21.0°c 70°f
Dew point:19.0°c 66°f
Wind:7 knots, 8.1 mph, 4 m/s, from 170°
Visibility:3.11 statute miles
7000(OVC) Overcast
1500(SCT) Scattered
700(FEW) A few
SBRJ 161700Z 17007KT 5000 BR FEW007 SCT015 OVC070 21/19 Q1016
MVFR 16:00:00 16-08-17
Altimeter:30.00 hg
Temp:20.0°c 68°f
Dew point:19.0°c 66°f
Wind:9 knots, 10.4 mph, 5 m/s, from 160°
Visibility:4.35 statute miles
7000(OVC) Overcast
1500(SCT) Scattered
700(FEW) A few
SBRJ 161600Z 16009KT 7000 FEW007 SCT015 OVC070 20/19 Q1016 REDZ
TAF
TAF SBRJ 161500Z 1618/1706 18010KT 7000 SCT015 BKN040 TX23/1618Z TN19/1706Z PROB40 TEMPO 1618/1622 21010KT 5000 RA BKN015 BKN040 BECMG 1623/1701 36005KT RMK PHD
Forecast at SBRJ
18:00 16-08-17 to 23:00 16-08-17
Wind:10 Knots from 180°
Visibility:4.35 statute miles
1500SCT Scattered
4000BKN Broken
TEMPO 18:00 16-08-17 to 22:00 16-08-17
40% RA
Wind:10 Knots from 210°
Visibility:3.11 statute miles
1500BKN Broken
4000BKN Broken
BECMG 23:00 16-08-17 to 06:00 17-08-17
Wind:5 Knots from 360°
Visibility:4.35 statute miles
1500SCT Scattered
4000BKN Broken